sensor_id;sensor_type;location;lat;lon;timestamp;P1;durP1;ratioP1;P2;durP2;ratioP2
58338;SDS011;48278;52.704;6.536;2022-11-11T00:01:32;18.83;;;7.95;;
58338;SDS011;48278;52.704;6.536;2022-11-11T00:03:57;18.58;;;6.90;;
58338;SDS011;48278;52.704;6.536;2022-11-11T00:06:23;20.60;;;7.60;;
58338;SDS011;48278;52.704;6.536;2022-11-11T00:08:49;20.85;;;8.75;;
58338;SDS011;48278;52.704;6.536;2022-11-11T00:11:15;18.60;;;7.50;;
58338;SDS011;48278;52.704;6.536;2022-11-11T00:13:41;21.48;;;8.48;;
58338;SDS011;48278;52.704;6.536;2022-11-11T00:16:09;22.92;;;7.75;;
58338;SDS011;48278;52.704;6.536;2022-11-11T00:18:41;17.45;;;5.60;;
58338;SDS011;48278;52.704;6.536;2022-11-11T00:21:26;19.80;;;7.20;;
58338;SDS011;48278;52.704;6.536;2022-11-11T00:24:22;21.05;;;8.23;;
58338;SDS011;48278;52.704;6.536;2022-11-11T00:27:08;21.85;;;7.43;;
58338;SDS011;48278;52.704;6.536;2022-11-11T00:29:35;23.50;;;7.70;;
58338;SDS011;48278;52.704;6.536;2022-11-11T00:32:02;19.42;;;8.13;;
58338;SDS011;48278;52.704;6.536;2022-11-11T00:34:47;19.25;;;7.55;;
58338;SDS011;48278;52.704;6.536;2022-11-11T00:37:35;23.73;;;8.05;;
58338;SDS011;48278;52.704;6.536;2022-11-11T00:40:01;25.70;;;7.85;;
58338;SDS011;48278;52.704;6.536;2022-11-11T00:42:27;17.65;;;6.60;;
58338;SDS011;48278;52.704;6.536;2022-11-11T00:44:53;21.23;;;8.25;;
58338;SDS011;48278;52.704;6.536;2022-11-11T00:47:18;21.08;;;7.65;;
58338;SDS011;48278;52.704;6.536;2022-11-11T00:50:04;22.00;;;8.43;;
58338;SDS011;48278;52.704;6.536;2022-11-11T00:52:49;22.33;;;8.20;;
58338;SDS011;48278;52.704;6.536;2022-11-11T00:55:15;21.05;;;8.20;;
58338;SDS011;48278;52.704;6.536;2022-11-11T00:57:41;20.88;;;7.93;;
58338;SDS011;48278;52.704;6.536;2022-11-11T01:00:06;24.05;;;8.18;;
58338;SDS011;48278;52.704;6.536;2022-11-11T01:02:32;19.48;;;8.25;;
58338;SDS011;48278;52.704;6.536;2022-11-11T01:04:58;21.48;;;8.43;;
58338;SDS011;48278;52.704;6.536;2022-11-11T01:07:24;22.15;;;9.30;;
58338;SDS011;48278;52.704;6.536;2022-11-11T01:09:50;25.15;;;8.85;;
58338;SDS011;48278;52.704;6.536;2022-11-11T01:12:15;23.00;;;8.65;;
58338;SDS011;48278;52.704;6.536;2022-11-11T01:14:41;22.77;;;9.18;;
58338;SDS011;48278;52.704;6.536;2022-11-11T01:17:07;19.35;;;8.70;;
58338;SDS011;48278;52.704;6.536;2022-11-11T01:19:34;23.00;;;9.85;;
58338;SDS011;48278;52.704;6.536;2022-11-11T01:22:00;23.55;;;9.60;;
58338;SDS011;48278;52.704;6.536;2022-11-11T01:24:25;23.95;;;10.35;;
58338;SDS011;48278;52.704;6.536;2022-11-11T01:26:51;23.50;;;10.82;;
58338;SDS011;48278;52.704;6.536;2022-11-11T01:29:17;21.40;;;9.07;;
58338;SDS011;48278;52.704;6.536;2022-11-11T01:31:43;24.35;;;9.75;;
58338;SDS011;48278;52.704;6.536;2022-11-11T01:34:09;26.42;;;10.10;;
58338;SDS011;48278;52.704;6.536;2022-11-11T01:36:34;25.67;;;10.00;;
58338;SDS011;48278;52.704;6.536;2022-11-11T01:39:00;19.45;;;9.70;;
58338;SDS011;48278;52.704;6.536;2022-11-11T01:41:27;27.63;;;10.23;;
58338;SDS011;48278;52.704;6.536;2022-11-11T01:52:21;28.67;;;12.23;;
58338;SDS011;48278;52.704;6.536;2022-11-11T01:57:24;30.38;;;13.63;;
58338;SDS011;48278;52.704;6.536;2022-11-11T02:00:12;32.53;;;12.40;;
58338;SDS011;48278;52.704;6.536;2022-11-11T02:05:07;28.02;;;13.10;;
58338;SDS011;48278;52.704;6.536;2022-11-11T02:07:54;35.03;;;13.43;;
58338;SDS011;48278;52.704;6.536;2022-11-11T02:10:23;34.33;;;13.20;;
58338;SDS011;48278;52.704;6.536;2022-11-11T02:12:51;32.95;;;13.88;;
58338;SDS011;48278;52.704;6.536;2022-11-11T02:15:35;35.17;;;14.10;;
58338;SDS011;48278;52.704;6.536;2022-11-11T02:18:01;41.88;;;14.13;;
58338;SDS011;48278;52.704;6.536;2022-11-11T02:20:29;35.67;;;13.95;;
58338;SDS011;48278;52.704;6.536;2022-11-11T02:23:05;37.03;;;13.88;;
58338;SDS011;48278;52.704;6.536;2022-11-11T02:25:38;35.22;;;14.35;;
58338;SDS011;48278;52.704;6.536;2022-11-11T02:28:09;39.40;;;14.10;;
58338;SDS011;48278;52.704;6.536;2022-11-11T02:30:37;38.83;;;15.32;;
58338;SDS011;48278;52.704;6.536;2022-11-11T02:33:03;33.83;;;14.33;;
58338;SDS011;48278;52.704;6.536;2022-11-11T02:35:30;35.17;;;15.57;;
58338;SDS011;48278;52.704;6.536;2022-11-11T02:38:01;37.85;;;14.63;;
58338;SDS011;48278;52.704;6.536;2022-11-11T02:40:34;40.08;;;16.05;;
58338;SDS011;48278;52.704;6.536;2022-11-11T02:43:02;42.22;;;15.20;;
58338;SDS011;48278;52.704;6.536;2022-11-11T02:45:29;37.88;;;15.85;;
58338;SDS011;48278;52.704;6.536;2022-11-11T02:47:55;36.17;;;15.70;;
58338;SDS011;48278;52.704;6.536;2022-11-11T02:50:20;39.92;;;15.93;;
58338;SDS011;48278;52.704;6.536;2022-11-11T02:52:46;43.05;;;16.23;;
58338;SDS011;48278;52.704;6.536;2022-11-11T02:55:12;45.10;;;17.45;;
58338;SDS011;48278;52.704;6.536;2022-11-11T02:57:37;41.13;;;17.55;;
58338;SDS011;48278;52.704;6.536;2022-11-11T03:00:04;42.92;;;19.92;;
58338;SDS011;48278;52.704;6.536;2022-11-11T03:02:30;37.10;;;17.73;;
58338;SDS011;48278;52.704;6.536;2022-11-11T03:04:56;43.05;;;17.15;;
58338;SDS011;48278;52.704;6.536;2022-11-11T03:07:23;38.25;;;17.35;;
58338;SDS011;48278;52.704;6.536;2022-11-11T03:09:49;42.85;;;17.58;;
58338;SDS011;48278;52.704;6.536;2022-11-11T03:12:15;45.15;;;18.10;;
58338;SDS011;48278;52.704;6.536;2022-11-11T03:14:41;43.40;;;17.05;;
58338;SDS011;48278;52.704;6.536;2022-11-11T03:17:08;31.15;;;13.68;;
58338;SDS011;48278;52.704;6.536;2022-11-11T03:19:52;42.50;;;18.50;;
58338;SDS011;48278;52.704;6.536;2022-11-11T03:22:38;47.55;;;18.38;;
58338;SDS011;48278;52.704;6.536;2022-11-11T03:25:03;41.63;;;16.83;;
58338;SDS011;48278;52.704;6.536;2022-11-11T03:27:48;47.67;;;17.73;;
58338;SDS011;48278;52.704;6.536;2022-11-11T03:30:14;56.92;;;19.38;;
58338;SDS011;48278;52.704;6.536;2022-11-11T03:32:40;43.92;;;18.00;;
58338;SDS011;48278;52.704;6.536;2022-11-11T03:37:32;44.60;;;16.40;;
58338;SDS011;48278;52.704;6.536;2022-11-11T03:40:17;45.95;;;19.95;;
58338;SDS011;48278;52.704;6.536;2022-11-11T03:42:43;41.45;;;18.73;;
58338;SDS011;48278;52.704;6.536;2022-11-11T03:45:08;52.10;;;21.60;;
58338;SDS011;48278;52.704;6.536;2022-11-11T03:47:34;43.35;;;18.23;;
58338;SDS011;48278;52.704;6.536;2022-11-11T03:50:00;46.78;;;18.92;;
58338;SDS011;48278;52.704;6.536;2022-11-11T03:52:26;47.80;;;18.88;;
58338;SDS011;48278;52.704;6.536;2022-11-11T03:54:51;43.65;;;19.45;;
58338;SDS011;48278;52.704;6.536;2022-11-11T03:57:17;48.13;;;19.67;;
58338;SDS011;48278;52.704;6.536;2022-11-11T03:59:55;48.58;;;18.63;;
58338;SDS011;48278;52.704;6.536;2022-11-11T04:02:20;43.60;;;18.65;;
58338;SDS011;48278;52.704;6.536;2022-11-11T04:05:05;45.15;;;19.40;;
58338;SDS011;48278;52.704;6.536;2022-11-11T04:07:50;50.70;;;20.48;;
58338;SDS011;48278;52.704;6.536;2022-11-11T04:10:34;48.78;;;19.98;;
58338;SDS011;48278;52.704;6.536;2022-11-11T04:13:00;50.00;;;18.97;;
58338;SDS011;48278;52.704;6.536;2022-11-11T04:15:45;43.88;;;17.60;;
58338;SDS011;48278;52.704;6.536;2022-11-11T04:18:29;50.67;;;18.85;;
58338;SDS011;48278;52.704;6.536;2022-11-11T04:21:14;44.72;;;18.40;;
58338;SDS011;48278;52.704;6.536;2022-11-11T04:23:58;44.10;;;20.23;;
58338;SDS011;48278;52.704;6.536;2022-11-11T04:26:24;55.22;;;20.10;;
58338;SDS011;48278;52.704;6.536;2022-11-11T04:28:50;45.05;;;19.00;;
58338;SDS011;48278;52.704;6.536;2022-11-11T04:31:34;45.35;;;18.42;;
58338;SDS011;48278;52.704;6.536;2022-11-11T04:34:00;40.92;;;17.88;;
58338;SDS011;48278;52.704;6.536;2022-11-11T04:36:26;41.58;;;19.10;;
58338;SDS011;48278;52.704;6.536;2022-11-11T04:38:52;46.28;;;19.38;;
58338;SDS011;48278;52.704;6.536;2022-11-11T04:41:36;41.13;;;17.02;;
58338;SDS011;48278;52.704;6.536;2022-11-11T04:44:02;42.88;;;19.30;;
58338;SDS011;48278;52.704;6.536;2022-11-11T04:46:47;46.67;;;17.20;;
58338;SDS011;48278;52.704;6.536;2022-11-11T04:49:12;41.90;;;17.60;;
58338;SDS011;48278;52.704;6.536;2022-11-11T04:51:38;45.85;;;18.48;;
58338;SDS011;48278;52.704;6.536;2022-11-11T04:54:22;36.92;;;16.83;;
58338;SDS011;48278;52.704;6.536;2022-11-11T04:56:47;37.50;;;17.02;;
58338;SDS011;48278;52.704;6.536;2022-11-11T04:59:17;40.40;;;17.98;;
58338;SDS011;48278;52.704;6.536;2022-11-11T05:01:44;39.47;;;17.30;;
58338;SDS011;48278;52.704;6.536;2022-11-11T05:04:29;40.25;;;17.73;;
58338;SDS011;48278;52.704;6.536;2022-11-11T05:06:55;37.63;;;17.02;;
58338;SDS011;48278;52.704;6.536;2022-11-11T05:09:39;39.58;;;17.92;;
58338;SDS011;48278;52.704;6.536;2022-11-11T05:12:05;42.03;;;16.55;;
58338;SDS011;48278;52.704;6.536;2022-11-11T05:14:31;43.03;;;18.13;;
58338;SDS011;48278;52.704;6.536;2022-11-11T05:17:15;43.85;;;17.27;;
58338;SDS011;48278;52.704;6.536;2022-11-11T05:19:59;41.17;;;16.10;;
58338;SDS011;48278;52.704;6.536;2022-11-11T05:22:43;38.75;;;17.95;;
58338;SDS011;48278;52.704;6.536;2022-11-11T05:25:10;39.92;;;17.27;;
58338;SDS011;48278;52.704;6.536;2022-11-11T05:27:58;38.97;;;16.92;;
58338;SDS011;48278;52.704;6.536;2022-11-11T05:30:24;42.30;;;16.67;;
58338;SDS011;48278;52.704;6.536;2022-11-11T05:32:50;40.47;;;17.52;;
58338;SDS011;48278;52.704;6.536;2022-11-11T05:35:19;32.33;;;12.98;;
58338;SDS011;48278;52.704;6.536;2022-11-11T05:37:44;41.75;;;16.70;;
58338;SDS011;48278;52.704;6.536;2022-11-11T05:40:33;42.17;;;16.05;;
58338;SDS011;48278;52.704;6.536;2022-11-11T05:42:59;38.75;;;16.80;;
58338;SDS011;48278;52.704;6.536;2022-11-11T05:45:24;41.05;;;14.85;;
58338;SDS011;48278;52.704;6.536;2022-11-11T05:47:50;35.33;;;16.92;;
58338;SDS011;48278;52.704;6.536;2022-11-11T05:50:16;40.38;;;16.05;;
58338;SDS011;48278;52.704;6.536;2022-11-11T05:52:46;38.70;;;16.17;;
58338;SDS011;48278;52.704;6.536;2022-11-11T05:55:13;38.88;;;16.40;;
58338;SDS011;48278;52.704;6.536;2022-11-11T05:57:39;40.38;;;15.18;;
58338;SDS011;48278;52.704;6.536;2022-11-11T06:00:04;39.55;;;16.05;;
58338;SDS011;48278;52.704;6.536;2022-11-11T06:02:31;37.85;;;16.20;;
58338;SDS011;48278;52.704;6.536;2022-11-11T06:04:56;38.05;;;17.02;;
58338;SDS011;48278;52.704;6.536;2022-11-11T06:07:22;38.40;;;16.65;;
58338;SDS011;48278;52.704;6.536;2022-11-11T06:09:48;37.72;;;15.02;;
58338;SDS011;48278;52.704;6.536;2022-11-11T06:12:13;41.25;;;16.88;;
58338;SDS011;48278;52.704;6.536;2022-11-11T06:14:39;38.08;;;16.73;;
58338;SDS011;48278;52.704;6.536;2022-11-11T06:17:05;37.40;;;15.13;;
58338;SDS011;48278;52.704;6.536;2022-11-11T06:19:31;35.03;;;15.32;;
58338;SDS011;48278;52.704;6.536;2022-11-11T06:21:57;35.28;;;14.15;;
58338;SDS011;48278;52.704;6.536;2022-11-11T06:24:23;43.05;;;16.30;;
58338;SDS011;48278;52.704;6.536;2022-11-11T06:26:49;34.20;;;15.55;;
58338;SDS011;48278;52.704;6.536;2022-11-11T06:29:15;34.50;;;14.73;;
58338;SDS011;48278;52.704;6.536;2022-11-11T06:31:41;36.13;;;15.25;;
58338;SDS011;48278;52.704;6.536;2022-11-11T06:34:07;35.10;;;14.35;;
58338;SDS011;48278;52.704;6.536;2022-11-11T06:36:47;33.72;;;14.23;;
58338;SDS011;48278;52.704;6.536;2022-11-11T06:39:13;36.53;;;15.27;;
58338;SDS011;48278;52.704;6.536;2022-11-11T06:41:39;37.60;;;14.45;;
58338;SDS011;48278;52.704;6.536;2022-11-11T06:44:04;38.95;;;15.40;;
58338;SDS011;48278;52.704;6.536;2022-11-11T06:46:30;35.42;;;14.57;;
58338;SDS011;48278;52.704;6.536;2022-11-11T06:48:56;34.50;;;14.43;;
58338;SDS011;48278;52.704;6.536;2022-11-11T06:51:22;38.95;;;15.48;;
58338;SDS011;48278;52.704;6.536;2022-11-11T06:53:48;33.33;;;14.07;;
58338;SDS011;48278;52.704;6.536;2022-11-11T06:56:13;32.00;;;13.73;;
58338;SDS011;48278;52.704;6.536;2022-11-11T06:58:39;33.75;;;14.15;;
58338;SDS011;48278;52.704;6.536;2022-11-11T07:01:06;32.80;;;14.80;;
58338;SDS011;48278;52.704;6.536;2022-11-11T07:03:33;34.83;;;14.45;;
58338;SDS011;48278;52.704;6.536;2022-11-11T07:06:00;32.15;;;14.68;;
58338;SDS011;48278;52.704;6.536;2022-11-11T07:08:26;35.25;;;15.00;;
58338;SDS011;48278;52.704;6.536;2022-11-11T07:10:53;32.60;;;13.83;;
58338;SDS011;48278;52.704;6.536;2022-11-11T07:13:18;28.30;;;13.25;;
58338;SDS011;48278;52.704;6.536;2022-11-11T07:15:44;30.48;;;14.45;;
58338;SDS011;48278;52.704;6.536;2022-11-11T07:18:10;32.88;;;13.38;;
58338;SDS011;48278;52.704;6.536;2022-11-11T07:20:36;33.55;;;13.73;;
58338;SDS011;48278;52.704;6.536;2022-11-11T07:23:03;30.33;;;13.00;;
58338;SDS011;48278;52.704;6.536;2022-11-11T07:25:29;32.53;;;13.07;;
58338;SDS011;48278;52.704;6.536;2022-11-11T07:27:55;31.92;;;13.05;;
58338;SDS011;48278;52.704;6.536;2022-11-11T07:30:21;30.17;;;13.55;;
58338;SDS011;48278;52.704;6.536;2022-11-11T07:32:48;30.20;;;13.30;;
58338;SDS011;48278;52.704;6.536;2022-11-11T07:35:15;31.42;;;13.27;;
58338;SDS011;48278;52.704;6.536;2022-11-11T07:37:42;28.75;;;13.10;;
58338;SDS011;48278;52.704;6.536;2022-11-11T07:40:09;25.80;;;11.57;;
58338;SDS011;48278;52.704;6.536;2022-11-11T07:42:37;28.88;;;13.38;;
58338;SDS011;48278;52.704;6.536;2022-11-11T07:45:04;28.83;;;13.07;;
58338;SDS011;48278;52.704;6.536;2022-11-11T07:47:30;31.08;;;12.25;;
58338;SDS011;48278;52.704;6.536;2022-11-11T07:49:56;31.92;;;12.48;;
58338;SDS011;48278;52.704;6.536;2022-11-11T07:52:22;28.85;;;12.35;;
58338;SDS011;48278;52.704;6.536;2022-11-11T07:54:48;33.20;;;12.80;;
58338;SDS011;48278;52.704;6.536;2022-11-11T07:57:14;28.80;;;12.32;;
58338;SDS011;48278;52.704;6.536;2022-11-11T07:59:40;28.60;;;12.68;;
58338;SDS011;48278;52.704;6.536;2022-11-11T08:02:09;32.38;;;13.50;;
58338;SDS011;48278;52.704;6.536;2022-11-11T08:04:36;26.60;;;12.75;;
58338;SDS011;48278;52.704;6.536;2022-11-11T08:07:02;33.83;;;13.07;;
58338;SDS011;48278;52.704;6.536;2022-11-11T08:09:28;32.33;;;12.02;;
58338;SDS011;48278;52.704;6.536;2022-11-11T08:11:53;31.15;;;12.30;;
58338;SDS011;48278;52.704;6.536;2022-11-11T08:14:37;28.75;;;11.32;;
58338;SDS011;48278;52.704;6.536;2022-11-11T08:17:03;31.83;;;11.20;;
58338;SDS011;48278;52.704;6.536;2022-11-11T08:19:29;28.00;;;11.98;;
58338;SDS011;48278;52.704;6.536;2022-11-11T08:21:55;30.85;;;12.05;;
58338;SDS011;48278;52.704;6.536;2022-11-11T08:24:20;27.05;;;11.85;;
58338;SDS011;48278;52.704;6.536;2022-11-11T08:26:47;28.85;;;12.48;;
58338;SDS011;48278;52.704;6.536;2022-11-11T08:29:13;26.07;;;11.57;;
58338;SDS011;48278;52.704;6.536;2022-11-11T08:31:39;27.05;;;11.70;;
58338;SDS011;48278;52.704;6.536;2022-11-11T08:34:04;32.88;;;11.70;;
58338;SDS011;48278;52.704;6.536;2022-11-11T08:36:30;28.13;;;11.27;;
58338;SDS011;48278;52.704;6.536;2022-11-11T08:38:56;27.98;;;11.20;;
58338;SDS011;48278;52.704;6.536;2022-11-11T08:41:22;26.80;;;11.90;;
58338;SDS011;48278;52.704;6.536;2022-11-11T08:43:54;27.98;;;10.95;;
58338;SDS011;48278;52.704;6.536;2022-11-11T08:46:20;27.75;;;10.90;;
58338;SDS011;48278;52.704;6.536;2022-11-11T08:48:46;24.25;;;11.18;;
58338;SDS011;48278;52.704;6.536;2022-11-11T08:51:12;31.88;;;12.73;;
58338;SDS011;48278;52.704;6.536;2022-11-11T08:53:39;24.42;;;10.77;;
58338;SDS011;48278;52.704;6.536;2022-11-11T08:56:05;21.95;;;10.73;;
58338;SDS011;48278;52.704;6.536;2022-11-11T08:58:31;22.70;;;10.63;;
58338;SDS011;48278;52.704;6.536;2022-11-11T09:00:57;23.40;;;8.77;;
58338;SDS011;48278;52.704;6.536;2022-11-11T09:03:23;24.77;;;10.73;;
58338;SDS011;48278;52.704;6.536;2022-11-11T09:05:49;24.80;;;10.23;;
58338;SDS011;48278;52.704;6.536;2022-11-11T09:08:15;25.83;;;9.60;;
58338;SDS011;48278;52.704;6.536;2022-11-11T09:10:41;23.33;;;9.48;;
58338;SDS011;48278;52.704;6.536;2022-11-11T09:13:07;27.55;;;11.45;;
58338;SDS011;48278;52.704;6.536;2022-11-11T09:15:33;24.77;;;9.98;;
58338;SDS011;48278;52.704;6.536;2022-11-11T09:18:01;21.30;;;10.13;;
58338;SDS011;48278;52.704;6.536;2022-11-11T09:20:27;22.73;;;11.00;;
58338;SDS011;48278;52.704;6.536;2022-11-11T09:22:53;23.03;;;10.63;;
58338;SDS011;48278;52.704;6.536;2022-11-11T09:25:19;25.00;;;10.80;;
58338;SDS011;48278;52.704;6.536;2022-11-11T09:27:55;24.83;;;11.03;;
58338;SDS011;48278;52.704;6.536;2022-11-11T09:32:49;20.83;;;10.23;;
58338;SDS011;48278;52.704;6.536;2022-11-11T09:35:15;23.85;;;10.65;;
58338;SDS011;48278;52.704;6.536;2022-11-11T09:37:40;23.50;;;10.23;;
58338;SDS011;48278;52.704;6.536;2022-11-11T09:40:08;27.00;;;11.20;;
58338;SDS011;48278;52.704;6.536;2022-11-11T09:42:48;22.88;;;10.30;;
58338;SDS011;48278;52.704;6.536;2022-11-11T09:45:25;23.75;;;10.40;;
58338;SDS011;48278;52.704;6.536;2022-11-11T09:50:59;28.95;;;13.02;;
58338;SDS011;48278;52.704;6.536;2022-11-11T09:53:29;24.95;;;12.00;;
58338;SDS011;48278;52.704;6.536;2022-11-11T09:55:59;28.48;;;13.65;;
58338;SDS011;48278;52.704;6.536;2022-11-11T09:58:33;28.30;;;13.13;;
58338;SDS011;48278;52.704;6.536;2022-11-11T10:01:08;27.40;;;13.25;;
58338;SDS011;48278;52.704;6.536;2022-11-11T10:03:42;30.15;;;13.15;;
58338;SDS011;48278;52.704;6.536;2022-11-11T10:06:20;28.88;;;13.23;;
58338;SDS011;48278;52.704;6.536;2022-11-11T10:08:59;28.45;;;13.20;;
58338;SDS011;48278;52.704;6.536;2022-11-11T10:11:42;33.13;;;14.35;;
58338;SDS011;48278;52.704;6.536;2022-11-11T10:14:14;30.02;;;12.88;;
58338;SDS011;48278;52.704;6.536;2022-11-11T10:19:54;28.13;;;14.13;;
58338;SDS011;48278;52.704;6.536;2022-11-11T10:22:56;32.95;;;13.70;;
58338;SDS011;48278;52.704;6.536;2022-11-11T10:25:27;30.80;;;13.30;;
58338;SDS011;48278;52.704;6.536;2022-11-11T10:27:55;29.73;;;13.25;;
58338;SDS011;48278;52.704;6.536;2022-11-11T10:30:25;30.42;;;14.00;;
58338;SDS011;48278;52.704;6.536;2022-11-11T10:35:40;26.83;;;13.38;;
58338;SDS011;48278;52.704;6.536;2022-11-11T10:40:40;28.17;;;12.90;;
58338;SDS011;48278;52.704;6.536;2022-11-11T10:43:17;24.25;;;13.05;;
58338;SDS011;48278;52.704;6.536;2022-11-11T10:48:39;25.60;;;11.88;;
58338;SDS011;48278;52.704;6.536;2022-11-11T10:51:24;27.58;;;13.52;;
58338;SDS011;48278;52.704;6.536;2022-11-11T10:59:17;26.05;;;12.15;;
58338;SDS011;48278;52.704;6.536;2022-11-11T11:01:48;27.52;;;12.55;;
58338;SDS011;48278;52.704;6.536;2022-11-11T11:06:53;25.13;;;9.48;;
58338;SDS011;48278;52.704;6.536;2022-11-11T11:09:29;26.60;;;13.18;;
58338;SDS011;48278;52.704;6.536;2022-11-11T11:12:07;24.10;;;11.70;;
58338;SDS011;48278;52.704;6.536;2022-11-11T11:17:08;23.83;;;10.82;;
58338;SDS011;48278;52.704;6.536;2022-11-11T11:19:41;22.70;;;11.05;;
58338;SDS011;48278;52.704;6.536;2022-11-11T11:22:07;21.70;;;10.38;;
58338;SDS011;48278;52.704;6.536;2022-11-11T11:24:33;25.65;;;10.88;;
58338;SDS011;48278;52.704;6.536;2022-11-11T11:27:05;21.25;;;9.80;;
58338;SDS011;48278;52.704;6.536;2022-11-11T11:29:35;21.67;;;10.45;;
58338;SDS011;48278;52.704;6.536;2022-11-11T11:32:10;18.90;;;9.45;;
58338;SDS011;48278;52.704;6.536;2022-11-11T11:37:16;22.40;;;10.85;;
58338;SDS011;48278;52.704;6.536;2022-11-11T11:39:44;20.38;;;10.13;;
58338;SDS011;48278;52.704;6.536;2022-11-11T11:42:26;21.30;;;10.05;;
58338;SDS011;48278;52.704;6.536;2022-11-11T11:44:53;21.42;;;10.23;;
58338;SDS011;48278;52.704;6.536;2022-11-11T11:52:39;19.10;;;9.18;;
58338;SDS011;48278;52.704;6.536;2022-11-11T11:55:14;18.20;;;8.48;;
58338;SDS011;48278;52.704;6.536;2022-11-11T12:00:23;18.27;;;8.48;;
58338;SDS011;48278;52.704;6.536;2022-11-11T12:05:47;18.90;;;8.50;;
58338;SDS011;48278;52.704;6.536;2022-11-11T12:11:05;16.88;;;8.43;;
58338;SDS011;48278;52.704;6.536;2022-11-11T12:13:46;19.92;;;9.50;;
58338;SDS011;48278;52.704;6.536;2022-11-11T12:16:34;20.38;;;9.90;;
58338;SDS011;48278;52.704;6.536;2022-11-11T12:27:16;22.48;;;9.02;;
58338;SDS011;48278;52.704;6.536;2022-11-11T13:02:15;16.83;;;8.45;;
58338;SDS011;48278;52.704;6.536;2022-11-11T13:07:58;19.98;;;8.10;;
58338;SDS011;48278;52.704;6.536;2022-11-11T13:13:07;17.02;;;7.63;;
58338;SDS011;48278;52.704;6.536;2022-11-11T13:15:58;19.90;;;7.93;;
58338;SDS011;48278;52.704;6.536;2022-11-11T13:18:29;13.43;;;7.00;;
58338;SDS011;48278;52.704;6.536;2022-11-11T13:21:05;19.25;;;7.85;;
58338;SDS011;48278;52.704;6.536;2022-11-11T13:23:37;17.23;;;7.53;;
58338;SDS011;48278;52.704;6.536;2022-11-11T13:26:03;17.15;;;7.75;;
58338;SDS011;48278;52.704;6.536;2022-11-11T13:28:41;19.45;;;7.85;;
58338;SDS011;48278;52.704;6.536;2022-11-11T13:31:30;17.02;;;6.95;;
58338;SDS011;48278;52.704;6.536;2022-11-11T13:34:09;15.10;;;6.43;;
58338;SDS011;48278;52.704;6.536;2022-11-11T13:36:41;16.42;;;6.57;;
58338;SDS011;48278;52.704;6.536;2022-11-11T13:39:21;19.00;;;7.25;;
58338;SDS011;48278;52.704;6.536;2022-11-11T13:41:51;16.88;;;7.13;;
58338;SDS011;48278;52.704;6.536;2022-11-11T13:44:21;15.65;;;6.45;;
58338;SDS011;48278;52.704;6.536;2022-11-11T13:46:49;16.08;;;7.18;;
58338;SDS011;48278;52.704;6.536;2022-11-11T13:52:01;17.65;;;7.00;;
58338;SDS011;48278;52.704;6.536;2022-11-11T13:54:46;17.00;;;7.60;;
58338;SDS011;48278;52.704;6.536;2022-11-11T14:00:04;14.27;;;7.03;;
58338;SDS011;48278;52.704;6.536;2022-11-11T14:02:32;15.00;;;6.85;;
58338;SDS011;48278;52.704;6.536;2022-11-11T14:10:08;19.85;;;6.72;;
58338;SDS011;48278;52.704;6.536;2022-11-11T14:12:46;16.15;;;6.95;;
58338;SDS011;48278;52.704;6.536;2022-11-11T14:15:37;15.77;;;7.47;;
58338;SDS011;48278;52.704;6.536;2022-11-11T14:21:03;15.45;;;7.20;;
58338;SDS011;48278;52.704;6.536;2022-11-11T14:23:33;18.88;;;7.32;;
58338;SDS011;48278;52.704;6.536;2022-11-11T14:31:42;18.08;;;7.22;;
58338;SDS011;48278;52.704;6.536;2022-11-11T14:34:39;18.90;;;6.68;;
58338;SDS011;48278;52.704;6.536;2022-11-11T14:39:51;19.90;;;6.38;;
58338;SDS011;48278;52.704;6.536;2022-11-11T14:45:49;16.27;;;7.18;;
58338;SDS011;48278;52.704;6.536;2022-11-11T14:47:54;17.05;;;7.07;;
58338;SDS011;48278;52.704;6.536;2022-11-11T14:52:55;16.80;;;6.95;;
58338;SDS011;48278;52.704;6.536;2022-11-11T14:55:35;19.55;;;7.38;;
58338;SDS011;48278;52.704;6.536;2022-11-11T15:00:33;18.52;;;7.82;;
58338;SDS011;48278;52.704;6.536;2022-11-11T15:03:23;20.65;;;8.23;;
58338;SDS011;48278;52.704;6.536;2022-11-11T15:06:17;24.00;;;8.13;;
58338;SDS011;48278;52.704;6.536;2022-11-11T15:09:18;18.45;;;8.10;;
58338;SDS011;48278;52.704;6.536;2022-11-11T15:19:44;20.67;;;8.05;;
58338;SDS011;48278;52.704;6.536;2022-11-11T15:33:49;25.60;;;13.15;;
58338;SDS011;48278;52.704;6.536;2022-11-11T15:36:27;46.67;;;24.00;;
58338;SDS011;48278;52.704;6.536;2022-11-11T15:39:04;57.92;;;25.48;;
58338;SDS011;48278;52.704;6.536;2022-11-11T15:41:35;26.17;;;11.15;;
58338;SDS011;48278;52.704;6.536;2022-11-11T15:44:08;23.65;;;9.20;;
58338;SDS011;48278;52.704;6.536;2022-11-11T15:46:43;21.23;;;7.10;;
58338;SDS011;48278;52.704;6.536;2022-11-11T15:49:14;20.95;;;6.95;;
58338;SDS011;48278;52.704;6.536;2022-11-11T15:51:59;17.27;;;6.95;;
58338;SDS011;48278;52.704;6.536;2022-11-11T15:54:25;20.58;;;7.53;;
58338;SDS011;48278;52.704;6.536;2022-11-11T15:56:51;20.23;;;9.52;;
58338;SDS011;48278;52.704;6.536;2022-11-11T15:59:22;26.92;;;11.23;;
58338;SDS011;48278;52.704;6.536;2022-11-11T16:01:54;34.97;;;14.27;;
58338;SDS011;48278;52.704;6.536;2022-11-11T16:04:21;35.28;;;14.65;;
58338;SDS011;48278;52.704;6.536;2022-11-11T16:09:18;39.27;;;12.83;;
58338;SDS011;48278;52.704;6.536;2022-11-11T16:11:46;36.65;;;12.80;;
58338;SDS011;48278;52.704;6.536;2022-11-11T16:14:31;41.40;;;12.85;;
58338;SDS011;48278;52.704;6.536;2022-11-11T16:17:03;43.47;;;15.00;;
58338;SDS011;48278;52.704;6.536;2022-11-11T16:19:34;65.00;;;31.43;;
58338;SDS011;48278;52.704;6.536;2022-11-11T16:22:07;36.33;;;13.43;;
58338;SDS011;48278;52.704;6.536;2022-11-11T16:24:41;31.90;;;11.57;;
58338;SDS011;48278;52.704;6.536;2022-11-11T16:27:11;37.17;;;13.23;;
58338;SDS011;48278;52.704;6.536;2022-11-11T16:29:42;28.23;;;11.90;;
58338;SDS011;48278;52.704;6.536;2022-11-11T16:34:49;48.53;;;24.52;;
58338;SDS011;48278;52.704;6.536;2022-11-11T16:37:17;42.83;;;20.05;;
58338;SDS011;48278;52.704;6.536;2022-11-11T16:39:44;34.37;;;15.97;;
58338;SDS011;48278;52.704;6.536;2022-11-11T16:44:57;26.00;;;11.43;;
58338;SDS011;48278;52.704;6.536;2022-11-11T16:50:21;28.33;;;11.00;;
58338;SDS011;48278;52.704;6.536;2022-11-11T16:52:57;31.35;;;12.07;;
58338;SDS011;48278;52.704;6.536;2022-11-11T16:58:16;26.33;;;12.23;;
58338;SDS011;48278;52.704;6.536;2022-11-11T17:00:44;26.40;;;11.70;;
58338;SDS011;48278;52.704;6.536;2022-11-11T17:03:15;25.10;;;11.02;;
58338;SDS011;48278;52.704;6.536;2022-11-11T17:08:30;19.75;;;8.18;;
58338;SDS011;48278;52.704;6.536;2022-11-11T17:11:01;18.48;;;8.07;;
58338;SDS011;48278;52.704;6.536;2022-11-11T17:13:29;22.50;;;8.43;;
58338;SDS011;48278;52.704;6.536;2022-11-11T17:15:56;19.42;;;9.27;;
58338;SDS011;48278;52.704;6.536;2022-11-11T17:18:25;34.85;;;13.70;;
58338;SDS011;48278;52.704;6.536;2022-11-11T17:20:51;26.83;;;11.93;;
58338;SDS011;48278;52.704;6.536;2022-11-11T17:23:17;30.37;;;11.20;;
58338;SDS011;48278;52.704;6.536;2022-11-11T17:25:43;20.77;;;9.00;;
58338;SDS011;48278;52.704;6.536;2022-11-11T17:28:09;22.85;;;9.77;;
58338;SDS011;48278;52.704;6.536;2022-11-11T17:30:35;23.40;;;8.75;;
58338;SDS011;48278;52.704;6.536;2022-11-11T17:33:02;18.83;;;7.87;;
58338;SDS011;48278;52.704;6.536;2022-11-11T17:35:28;17.27;;;7.80;;
58338;SDS011;48278;52.704;6.536;2022-11-11T17:37:54;25.00;;;8.32;;